createdAt,value
2022-08-21T00:00:06.251Z,100877.66
2022-08-21T00:02:34.123Z,100872.94
2022-08-21T00:05:03.581Z,100864.28
2022-08-21T00:07:31.585Z,100873.47
2022-08-21T00:09:59.296Z,100859.22
2022-08-21T00:12:27.216Z,100853.91
2022-08-21T00:14:57.989Z,100852.56
2022-08-21T00:17:26.000Z,100852.09
2022-08-21T00:19:53.606Z,100851.00
2022-08-21T00:22:22.849Z,100847.13
2022-08-21T00:24:50.772Z,100843.91
2022-08-21T00:27:18.600Z,100842.16
2022-08-21T00:29:46.427Z,100846.59
2022-08-21T00:32:14.217Z,100841.28
2022-08-21T00:34:41.705Z,100834.84
2022-08-21T00:37:09.390Z,100837.63
2022-08-21T00:39:38.679Z,100838.50
2022-08-21T00:42:06.936Z,100841.88
2022-08-21T00:44:34.748Z,100842.25
2022-08-21T00:47:02.359Z,100835.63
2022-08-21T00:49:30.171Z,100848.09
2022-08-21T00:52:01.087Z,100841.44
2022-08-21T00:54:31.899Z,100837.88
2022-08-21T00:57:04.331Z,100849.69
2022-08-21T00:59:36.539Z,100852.28
2022-08-21T01:02:04.717Z,100851.13
2022-08-21T01:04:32.636Z,100840.03
2022-08-21T01:07:00.161Z,100844.09
2022-08-21T01:09:28.057Z,100840.97
2022-08-21T01:11:55.812Z,100834.66
2022-08-21T01:14:24.978Z,100838.56
2022-08-21T01:16:54.823Z,100846.38
2022-08-21T01:19:23.506Z,100854.38
2022-08-21T01:21:52.840Z,100848.06
2022-08-21T01:24:20.524Z,100848.91
2022-08-21T01:26:48.755Z,100843.78
2022-08-21T01:29:22.546Z,100849.94
2022-08-21T01:31:50.270Z,100845.75
2022-08-21T01:34:18.278Z,100850.63
2022-08-21T01:36:47.781Z,100842.06
2022-08-21T01:39:17.293Z,100850.22
2022-08-21T01:41:45.616Z,100850.09
2022-08-21T01:44:13.427Z,100852.84
2022-08-21T01:46:41.820Z,100848.25
2022-08-21T01:49:09.822Z,100849.25
2022-08-21T01:51:37.751Z,100849.25
2022-08-21T01:54:05.454Z,100852.66
2022-08-21T01:56:40.662Z,100847.78
2022-08-21T01:59:08.791Z,100851.84
2022-08-21T02:01:36.791Z,100844.69
2022-08-21T02:04:05.379Z,100845.69
2022-08-21T02:06:33.310Z,100841.16
2022-08-21T02:09:00.827Z,100829.97
2022-08-21T02:11:28.630Z,100833.03
2022-08-21T02:13:57.736Z,100835.97
2022-08-21T02:16:25.576Z,100836.78
2022-08-21T02:18:53.577Z,100836.59
2022-08-21T02:21:21.303Z,100836.44
2022-08-21T02:23:49.084Z,100838.53
2022-08-21T02:26:16.804Z,100831.22
2022-08-21T02:28:44.660Z,100831.09
2022-08-21T02:31:13.526Z,100825.59
2022-08-21T02:33:42.142Z,100832.69
2022-08-21T02:36:11.847Z,100819.56
2022-08-21T02:38:41.755Z,100822.97
2022-08-21T02:41:22.267Z,100825.22
2022-08-21T02:43:50.340Z,100819.06
2022-08-21T02:46:21.188Z,100823.44
2022-08-21T02:48:49.110Z,100826.81
2022-08-21T02:51:19.308Z,100831.84
2022-08-21T02:53:49.018Z,100834.28
2022-08-21T02:56:20.429Z,100832.31
2022-08-21T02:58:54.438Z,100835.06
2022-08-21T03:01:23.886Z,100832.94
2022-08-21T03:03:51.964Z,100835.47
2022-08-21T03:06:22.867Z,100838.75
2022-08-21T03:08:51.787Z,100832.78
2022-08-21T03:11:21.397Z,100829.34
2022-08-21T03:13:49.303Z,100822.44
2022-08-21T03:16:16.922Z,100820.94
2022-08-21T03:18:45.963Z,100816.06
2022-08-21T03:21:14.178Z,100812.34
2022-08-21T03:23:43.000Z,100821.38
2022-08-21T03:26:11.982Z,100808.88
2022-08-21T03:28:39.569Z,100814.56
2022-08-21T03:31:07.691Z,100812.34
2022-08-21T03:33:35.502Z,100812.47
2022-08-21T03:36:08.100Z,100820.75
2022-08-21T03:38:36.821Z,100813.44
2022-08-21T03:41:05.840Z,100821.28
2022-08-21T03:43:33.933Z,100821.69
2022-08-21T03:46:02.610Z,100810.19
2022-08-21T03:48:33.057Z,100820.59
2022-08-21T03:51:00.768Z,100815.91
2022-08-21T03:53:31.176Z,100808.09
2022-08-21T03:55:58.990Z,100806.81
2022-08-21T03:58:28.503Z,100823.94
2022-08-21T04:00:59.323Z,100813.72
2022-08-21T04:03:28.031Z,100817.28
2022-08-21T04:05:55.831Z,100817.09
2022-08-21T04:08:23.652Z,100830.19
2022-08-21T04:10:55.654Z,100821.59
2022-08-21T04:13:23.569Z,100824.03
2022-08-21T04:15:51.690Z,100827.94
2022-08-21T04:18:19.487Z,100831.81
2022-08-21T04:20:50.733Z,100828.84
2022-08-21T04:23:23.926Z,100834.31
2022-08-21T04:25:54.920Z,100834.31
2022-08-21T04:28:23.579Z,100834.13
2022-08-21T04:30:57.494Z,100838.63
2022-08-21T04:33:25.392Z,100839.56
2022-08-21T04:35:53.072Z,100836.50
2022-08-21T04:38:21.287Z,100831.63
2022-08-21T04:40:50.497Z,100832.75
2022-08-21T04:43:20.503Z,100831.63
2022-08-21T04:45:50.161Z,100840.38
2022-08-21T04:48:20.064Z,100834.06
2022-08-21T04:50:54.263Z,100837.31
2022-08-21T04:53:32.532Z,100843.00
2022-08-21T04:56:06.367Z,100841.13
2022-08-21T04:58:39.278Z,100843.56
2022-08-21T05:01:10.731Z,100841.47
2022-08-21T05:03:39.848Z,100846.34
2022-08-21T05:06:10.911Z,100842.81
2022-08-21T05:08:39.235Z,100846.56
2022-08-21T05:11:08.221Z,100848.69
2022-08-21T05:13:37.497Z,100847.78
2022-08-21T05:16:06.146Z,100840.97
2022-08-21T05:18:33.855Z,100853.00
2022-08-21T05:21:01.663Z,100849.78
2022-08-21T05:23:29.374Z,100850.47
2022-08-21T05:25:57.491Z,100856.63
2022-08-21T05:28:25.399Z,100852.91
2022-08-21T05:30:56.209Z,100848.25
2022-08-21T05:33:24.018Z,100846.66
2022-08-21T05:35:52.231Z,100853.44
2022-08-21T05:38:20.338Z,100856.38
2022-08-21T05:40:48.617Z,100859.31
2022-08-21T05:43:16.961Z,100848.44
2022-08-21T05:45:44.793Z,100858.50
2022-08-21T05:48:15.513Z,100855.56
2022-08-21T05:50:44.507Z,100858.94
2022-08-21T05:53:13.416Z,100855.34
2022-08-21T05:55:45.818Z,100867.16
2022-08-21T05:58:15.633Z,100854.44
2022-08-21T06:00:43.838Z,100856.47
2022-08-21T06:03:18.625Z,100850.44
2022-08-21T06:05:47.381Z,100848.28
2022-08-21T06:08:15.448Z,100851.50
2022-08-21T06:10:43.378Z,100845.78
2022-08-21T06:13:11.372Z,100848.28
2022-08-21T06:15:39.106Z,100847.03
2022-08-21T06:18:07.522Z,100837.41
2022-08-21T06:20:36.736Z,100840.53
2022-08-21T06:23:05.349Z,100836.56
2022-08-21T06:25:33.256Z,100837.66
2022-08-21T06:28:05.360Z,100845.16
2022-08-21T06:30:33.584Z,100852.38
2022-08-21T06:33:01.475Z,100852.69
2022-08-21T06:35:30.131Z,100854.78
2022-08-21T06:38:03.110Z,100853.28
2022-08-21T06:40:34.250Z,100851.94
2022-08-21T06:43:08.840Z,100845.59
2022-08-21T06:45:36.924Z,100849.88
2022-08-21T06:48:05.387Z,100844.63
2022-08-21T06:50:33.463Z,100845.06
2022-08-21T06:53:06.143Z,100843.81
2022-08-21T06:55:34.485Z,100845.41
2022-08-21T06:58:02.492Z,100835.56
2022-08-21T07:00:30.923Z,100840.75
2022-08-21T07:02:59.070Z,100845.47
2022-08-21T07:05:28.156Z,100840.38
2022-08-21T07:07:55.939Z,100832.56
2022-08-21T07:10:25.162Z,100834.09
2022-08-21T07:12:59.137Z,100831.16
2022-08-21T07:15:30.333Z,100832.25
2022-08-21T07:17:59.047Z,100836.03
2022-08-21T07:20:27.305Z,100833.56
2022-08-21T07:22:55.895Z,100834.72
2022-08-21T07:25:25.117Z,100828.47
2022-08-21T07:27:52.829Z,100829.28
2022-08-21T07:30:20.613Z,100829.28
2022-08-21T07:32:50.186Z,100831.72
2022-08-21T07:35:18.873Z,100832.78
2022-08-21T07:37:47.746Z,100834.91
2022-08-21T07:40:16.330Z,100835.28
2022-08-21T07:42:48.058Z,100834.44
2022-08-21T07:45:16.907Z,100833.44
2022-08-21T07:47:45.515Z,100830.63
2022-08-21T07:50:14.172Z,100824.00
2022-08-21T07:52:42.722Z,100820.59
2022-08-21T07:55:12.159Z,100823.53
2022-08-21T07:57:39.973Z,100825.19
2022-08-21T08:00:12.874Z,100814.63
2022-08-21T08:02:41.817Z,100824.28
2022-08-21T08:05:12.397Z,100822.66
2022-08-21T08:07:40.403Z,100828.75
2022-08-21T08:10:09.327Z,100819.28
2022-08-21T08:12:37.341Z,100824.00
2022-08-21T08:15:12.236Z,100826.19
2022-08-21T08:17:40.248Z,100827.91
2022-08-21T08:20:10.165Z,100820.56
2022-08-21T08:22:40.294Z,100819.59
2022-08-21T08:25:09.986Z,100833.88
2022-08-21T08:27:38.490Z,100827.47
2022-08-21T08:30:08.191Z,100824.94
2022-08-21T08:32:37.622Z,100820.88
2022-08-21T08:35:06.427Z,100819.53
2022-08-21T08:37:38.537Z,100815.94
2022-08-21T08:40:12.388Z,100810.66
2022-08-21T08:42:40.384Z,100805.94
2022-08-21T08:45:11.573Z,100805.94
2022-08-21T08:47:44.281Z,100807.38
2022-08-21T08:50:19.095Z,100807.19
2022-08-21T08:52:51.652Z,100811.59
2022-08-21T08:55:26.641Z,100811.97
2022-08-21T08:57:56.922Z,100810.72
2022-08-21T09:00:26.038Z,100822.97
2022-08-21T09:02:59.598Z,100815.34
2022-08-21T09:05:29.258Z,100814.59
2022-08-21T09:08:18.871Z,100809.34
2022-08-21T09:10:59.781Z,100805.41
2022-08-21T09:13:42.185Z,100803.53
2022-08-21T09:16:20.605Z,100801.53
2022-08-21T09:19:01.816Z,100798.31
2022-08-21T09:21:52.152Z,100797.44
2022-08-21T09:24:32.049Z,100783.47
2022-08-21T09:27:09.894Z,100788.78
2022-08-21T09:29:39.751Z,100783.25
2022-08-21T09:32:20.574Z,100780.84
2022-08-21T09:35:02.091Z,100789.34
2022-08-21T09:37:32.223Z,100788.13
2022-08-21T09:40:00.949Z,100777.22
2022-08-21T09:42:33.027Z,100782.19
2022-08-21T09:45:13.040Z,100790.69
2022-08-21T09:47:40.780Z,100790.09
2022-08-21T09:50:23.558Z,100778.25
2022-08-21T09:52:54.547Z,100780.28
2022-08-21T09:56:00.779Z,100783.47
2022-08-21T09:58:34.689Z,100780.50
2022-08-21T10:01:05.759Z,100773.44
2022-08-21T10:03:33.816Z,100766.16
2022-08-21T10:06:09.442Z,100770.28
2022-08-21T10:08:39.438Z,100766.63
2022-08-21T10:11:09.347Z,100761.38
2022-08-21T10:13:47.559Z,100780.56
2022-08-21T10:16:27.522Z,100776.47
2022-08-21T10:19:08.020Z,100776.53
2022-08-21T10:21:43.291Z,100762.56
2022-08-21T10:24:31.109Z,100768.25
2022-08-21T10:27:12.313Z,100757.50
2022-08-21T10:29:49.743Z,100774.06
2022-08-21T10:32:29.038Z,100761.44
2022-08-21T10:35:04.538Z,100758.97
2022-08-21T10:37:50.026Z,100751.44
2022-08-21T10:40:27.266Z,100747.22
2022-08-21T10:43:09.812Z,100749.78
2022-08-21T10:45:52.995Z,100753.13
2022-08-21T10:48:30.332Z,100752.28
2022-08-21T10:51:06.220Z,100747.69
2022-08-21T10:53:57.697Z,100754.97
2022-08-21T10:56:29.049Z,100742.84
2022-08-21T10:59:09.564Z,100750.72
2022-08-21T11:01:46.768Z,100743.41
2022-08-21T11:04:21.579Z,100741.97
2022-08-21T11:06:55.502Z,100742.22
2022-08-21T11:09:28.115Z,100737.09
2022-08-21T11:12:11.353Z,100743.19
2022-08-21T11:14:50.462Z,100729.66
2022-08-21T11:17:22.857Z,100738.44
2022-08-21T11:19:55.353Z,100740.13
2022-08-21T11:22:28.863Z,100743.69
2022-08-21T11:25:02.783Z,100746.81
2022-08-21T11:27:38.481Z,100748.09
2022-08-21T11:30:08.496Z,100738.81
2022-08-21T11:32:52.329Z,100749.56
2022-08-21T11:35:27.925Z,100726.28
2022-08-21T11:38:04.533Z,100740.66
2022-08-21T11:40:46.568Z,100734.72
2022-08-21T11:43:22.649Z,100733.28
2022-08-21T11:45:53.073Z,100736.63
2022-08-21T11:48:42.301Z,100745.63
2022-08-21T11:51:14.786Z,100747.50
2022-08-21T11:53:54.171Z,100745.53
2022-08-21T11:56:29.208Z,100750.44
2022-08-21T11:59:01.340Z,100738.31
2022-08-21T12:01:33.373Z,100738.88
2022-08-21T12:04:07.641Z,100734.22
2022-08-21T12:06:38.652Z,100734.97
2022-08-21T12:09:08.478Z,100737.22
2022-08-21T12:11:49.074Z,100745.44
2022-08-21T12:14:20.353Z,100740.63
2022-08-21T12:16:50.105Z,100740.88
2022-08-21T12:19:32.409Z,100730.09
2022-08-21T12:22:10.029Z,100722.53
2022-08-21T12:24:40.238Z,100730.66
2022-08-21T12:27:29.465Z,100726.78
2022-08-21T12:30:00.662Z,100723.66
2022-08-21T12:32:33.285Z,100720.47
2022-08-21T12:35:08.109Z,100719.31
2022-08-21T12:37:48.772Z,100725.97
2022-08-21T12:40:24.471Z,100719.44
2022-08-21T12:42:59.156Z,100725.22
2022-08-21T12:45:31.426Z,100722.25
2022-08-21T12:48:03.154Z,100719.13
2022-08-21T12:50:45.349Z,100718.56
2022-08-21T12:53:27.274Z,100719.22
2022-08-21T12:56:00.703Z,100714.91
2022-08-21T12:58:30.904Z,100707.16
2022-08-21T13:01:03.498Z,100707.44
2022-08-21T13:03:32.214Z,100712.91
2022-08-21T13:06:00.817Z,100712.91
2022-08-21T13:08:30.045Z,100707.13
2022-08-21T13:11:13.721Z,100707.34
2022-08-21T13:13:46.960Z,100709.03
2022-08-21T13:16:26.264Z,100707.84
2022-08-21T13:19:00.178Z,100706.94
2022-08-21T13:21:34.690Z,100696.38
2022-08-21T13:24:39.135Z,100698.34
2022-08-21T13:27:04.273Z,100697.69
2022-08-21T13:29:35.828Z,100699.94
2022-08-21T13:32:09.533Z,100705.19
2022-08-21T13:34:39.844Z,100701.59
2022-08-21T13:37:09.984Z,100696.47
2022-08-21T13:39:39.526Z,100695.88
2022-08-21T13:42:13.378Z,100687.56
2022-08-21T13:44:45.493Z,100684.72
2022-08-21T13:47:16.946Z,100696.97
2022-08-21T13:49:47.114Z,100692.66
2022-08-21T13:52:21.124Z,100693.53
2022-08-21T13:54:57.138Z,100682.50
2022-08-21T13:57:29.548Z,100681.06
2022-08-21T14:03:07.674Z,100692.25
2022-08-21T14:05:38.882Z,100684.03
2022-08-21T14:08:10.295Z,100683.81
2022-08-21T14:10:44.411Z,100688.91
2022-08-21T14:13:38.200Z,100683.81
2022-08-21T14:16:15.549Z,100687.81
2022-08-21T14:18:53.556Z,100686.06
2022-08-21T14:21:34.361Z,100684.44
2022-08-21T14:24:06.371Z,100678.53
2022-08-21T14:26:37.101Z,100690.38
2022-08-21T14:29:10.907Z,100676.16
2022-08-21T14:31:43.157Z,100684.97
2022-08-21T14:34:19.225Z,100682.84
2022-08-21T14:36:47.213Z,100684.22
2022-08-21T14:39:17.151Z,100686.56
2022-08-21T14:41:46.944Z,100690.84
2022-08-21T14:44:15.048Z,100677.50
2022-08-21T14:46:54.308Z,100677.41
2022-08-21T14:49:28.366Z,100675.56
2022-08-21T14:51:58.360Z,100673.53
2022-08-21T14:54:30.732Z,100674.13
2022-08-21T14:57:00.880Z,100674.19
2022-08-21T14:59:28.684Z,100683.75
2022-08-21T15:01:57.251Z,100677.19
2022-08-21T15:04:26.989Z,100678.63
2022-08-21T15:06:54.653Z,100682.28
2022-08-21T15:09:22.732Z,100678.38
2022-08-21T15:11:50.669Z,100688.25
2022-08-21T15:14:22.490Z,100684.06
2022-08-21T15:16:50.934Z,100687.25
2022-08-21T15:19:18.939Z,100689.84
2022-08-21T15:21:49.014Z,100681.38
2022-08-21T15:24:17.007Z,100677.81
2022-08-21T15:26:45.390Z,100680.63
2022-08-21T15:29:13.034Z,100679.97
2022-08-21T15:31:52.667Z,100684.78
2022-08-21T15:34:20.610Z,100676.59
2022-08-21T15:36:52.424Z,100677.03
2022-08-21T15:39:24.827Z,100671.91
2022-08-21T15:41:57.955Z,100670.44
2022-08-21T15:44:27.995Z,100667.81
2022-08-21T15:46:55.918Z,100671.72
2022-08-21T15:49:24.508Z,100676.38
2022-08-21T15:51:54.063Z,100664.63
2022-08-21T15:54:21.901Z,100663.28
2022-08-21T15:56:52.640Z,100670.81
2022-08-21T15:59:23.945Z,100663.22
2022-08-21T16:01:53.363Z,100668.31
2022-08-21T16:04:24.723Z,100672.31
2022-08-21T16:06:59.234Z,100671.63
2022-08-21T16:09:29.601Z,100675.88
2022-08-21T16:11:57.414Z,100667.13
2022-08-21T16:14:25.214Z,100668.75
2022-08-21T16:16:54.019Z,100676.69
2022-08-21T16:19:22.719Z,100669.06
2022-08-21T16:21:50.497Z,100665.88
2022-08-21T16:24:19.784Z,100663.44
2022-08-21T16:26:57.520Z,100668.28
2022-08-21T16:29:29.166Z,100669.47
2022-08-21T16:31:57.709Z,100669.06
2022-08-21T16:34:26.129Z,100666.66
2022-08-21T16:36:53.923Z,100669.03
2022-08-21T16:39:23.042Z,100676.28
2022-08-21T16:41:52.198Z,100676.38
2022-08-21T16:44:20.287Z,100669.16
2022-08-21T16:46:48.427Z,100675.59
2022-08-21T16:49:16.365Z,100678.00
2022-08-21T16:51:44.615Z,100674.81
2022-08-21T16:54:13.946Z,100670.84
2022-08-21T16:56:47.456Z,100678.03
2022-08-21T16:59:17.353Z,100671.63
2022-08-21T17:01:45.726Z,100669.22
2022-08-21T17:04:13.606Z,100676.00
2022-08-21T17:06:41.430Z,100672.41
2022-08-21T17:09:09.299Z,100675.59
2022-08-21T17:11:40.408Z,100673.97
2022-08-21T17:14:13.527Z,100667.97
2022-08-21T17:16:43.923Z,100668.34
2022-08-21T17:19:15.960Z,100671.53
2022-08-21T17:21:43.858Z,100665.09
2022-08-21T17:24:12.835Z,100679.44
2022-08-21T17:26:40.949Z,100675.03
2022-08-21T17:29:14.384Z,100671.41
2022-08-21T17:31:43.289Z,100670.97
2022-08-21T17:34:18.814Z,100670.53
2022-08-21T17:36:46.717Z,100676.88
2022-08-21T17:39:17.785Z,100678.75
2022-08-21T17:41:52.898Z,100673.09
2022-08-21T17:44:26.986Z,100674.19
2022-08-21T17:46:54.864Z,100671.72
2022-08-21T17:49:22.747Z,100670.84
2022-08-21T17:51:50.522Z,100667.53
2022-08-21T17:54:18.264Z,100667.41
2022-08-21T17:56:46.314Z,100674.16
2022-08-21T17:59:14.129Z,100678.81
2022-08-21T18:01:44.920Z,100673.19
2022-08-21T18:04:13.083Z,100679.50
2022-08-21T18:06:41.471Z,100681.75
2022-08-21T18:09:10.471Z,100685.28
2022-08-21T18:11:38.550Z,100681.91
2022-08-21T18:14:07.957Z,100677.03
2022-08-21T18:16:37.700Z,100682.75
2022-08-21T18:19:10.520Z,100691.56
2022-08-21T18:21:38.758Z,100690.59
2022-08-21T18:24:06.859Z,100684.59
2022-08-21T18:26:38.655Z,100678.81
2022-08-21T18:29:09.102Z,100683.47
2022-08-21T18:31:38.830Z,100686.66
2022-08-21T18:34:15.107Z,100685.38
2022-08-21T18:36:46.000Z,100695.81
2022-08-21T18:39:35.548Z,100684.59
2022-08-21T18:42:03.494Z,100694.69
2022-08-21T18:44:32.632Z,100689.81
2022-08-21T18:47:03.013Z,100692.91
2022-08-21T18:49:32.458Z,100694.91
2022-08-21T18:52:03.231Z,100699.41
2022-08-21T18:54:31.685Z,100705.78
2022-08-21T18:56:59.785Z,100709.59
2022-08-21T18:59:33.798Z,100699.22
2022-08-21T19:02:01.586Z,100706.06
2022-08-21T19:04:43.537Z,100712.94
2022-08-21T19:07:14.510Z,100705.53
2022-08-21T19:09:52.717Z,100711.66
2022-08-21T19:12:31.079Z,100703.78
2022-08-21T19:14:59.264Z,100706.84
2022-08-21T19:17:28.275Z,100712.41
2022-08-21T19:19:58.900Z,100718.41
2022-08-21T19:22:28.265Z,100717.22
2022-08-21T19:24:56.008Z,100717.22
2022-08-21T19:27:23.818Z,100717.22
2022-08-21T19:29:51.643Z,100718.13
2022-08-21T19:32:21.448Z,100718.75
2022-08-21T19:37:39.363Z,100723.91
2022-08-21T19:40:09.456Z,100727.78
2022-08-21T19:42:37.390Z,100722.75
2022-08-21T19:45:06.997Z,100725.91
2022-08-21T19:47:36.124Z,100728.16
2022-08-21T19:50:17.530Z,100727.72
2022-08-21T19:52:51.480Z,100728.75
2022-08-21T19:55:34.841Z,100727.16
2022-08-21T19:58:04.669Z,100730.66
2022-08-21T20:00:33.019Z,100732.53
2022-08-21T20:03:01.063Z,100728.00
2022-08-21T20:05:31.402Z,100724.44
2022-08-21T20:08:19.993Z,100728.53
2022-08-21T20:10:49.798Z,100743.25
2022-08-21T20:13:21.424Z,100743.16
2022-08-21T20:15:50.331Z,100737.25
2022-08-21T20:18:19.502Z,100735.53
2022-08-21T20:20:54.948Z,100744.03
2022-08-21T20:23:30.031Z,100743.94
2022-08-21T20:25:58.503Z,100751.03
2022-08-21T20:28:27.288Z,100740.72
2022-08-21T20:30:56.270Z,100747.56
2022-08-21T20:33:24.212Z,100752.03
2022-08-21T20:35:52.230Z,100751.97
2022-08-21T20:38:21.437Z,100747.47
2022-08-21T20:40:53.455Z,100754.19
2022-08-21T20:43:24.155Z,100746.59
2022-08-21T20:45:52.266Z,100746.84
2022-08-21T20:48:26.799Z,100748.47
2022-08-21T20:51:01.890Z,100748.91
2022-08-21T20:53:42.930Z,100748.66
2022-08-21T20:56:16.412Z,100740.13
2022-08-21T20:58:52.826Z,100734.56
2022-08-21T21:01:21.444Z,100736.09
2022-08-21T21:03:55.079Z,100734.03
2022-08-21T21:06:26.957Z,100747.66
2022-08-21T21:08:59.373Z,100741.66
2022-08-21T21:11:34.684Z,100744.34
2022-08-21T21:14:11.893Z,100740.41
2022-08-21T21:16:45.902Z,100741.47
2022-08-21T21:19:37.817Z,100739.94
2022-08-21T21:22:09.969Z,100742.03
2022-08-21T21:24:48.010Z,100744.09
2022-08-21T21:27:23.348Z,100739.75
2022-08-21T21:29:56.224Z,100741.22
2022-08-21T21:32:24.670Z,100743.56
2022-08-21T21:34:52.470Z,100745.78
2022-08-21T21:37:25.799Z,100739.31
2022-08-21T21:40:01.565Z,100735.66
2022-08-21T21:42:41.216Z,100742.13
2022-08-21T21:45:21.222Z,100740.13
2022-08-21T21:48:04.939Z,100747.47
2022-08-21T21:50:49.553Z,100745.13
2022-08-21T21:53:33.502Z,100754.06
2022-08-21T21:56:10.095Z,100750.66
2022-08-21T21:59:09.933Z,100753.94
2022-08-21T22:01:45.299Z,100750.78
2022-08-21T22:04:23.479Z,100751.22
2022-08-21T22:06:58.928Z,100753.97
2022-08-21T22:09:42.246Z,100746.66
2022-08-21T22:12:27.937Z,100752.00
2022-08-21T22:14:57.288Z,100746.34
2022-08-21T22:17:35.178Z,100757.78
2022-08-21T22:20:12.310Z,100753.41
2022-08-21T22:22:41.998Z,100763.69
2022-08-21T22:25:18.442Z,100755.50
2022-08-21T22:27:50.124Z,100751.50
2022-08-21T22:30:40.287Z,100742.50
2022-08-21T22:33:13.937Z,100747.47
2022-08-21T22:35:42.355Z,100750.25
2022-08-21T22:38:29.771Z,100752.34
2022-08-21T22:41:13.402Z,100762.50
2022-08-21T22:43:52.560Z,100758.41
2022-08-21T22:46:27.467Z,100760.53
2022-08-21T22:49:05.429Z,100754.94
2022-08-21T22:51:38.418Z,100764.59
2022-08-21T22:54:16.850Z,100770.41
2022-08-21T22:57:00.442Z,100768.16
2022-08-21T22:59:31.437Z,100766.22
2022-08-21T23:02:05.195Z,100768.53
2022-08-21T23:04:48.378Z,100760.22
2022-08-21T23:07:33.773Z,100761.25
2022-08-21T23:10:02.007Z,100763.94
2022-08-21T23:12:36.041Z,100757.44
2022-08-21T23:15:09.889Z,100764.59
2022-08-21T23:17:49.789Z,100756.63
2022-08-21T23:20:24.453Z,100764.38
2022-08-21T23:23:04.220Z,100767.72
2022-08-21T23:25:46.374Z,100764.38
2022-08-21T23:28:31.481Z,100755.81
2022-08-21T23:31:08.603Z,100754.47
2022-08-21T23:33:52.119Z,100763.69
2022-08-21T23:36:47.816Z,100762.97
2022-08-21T23:39:28.729Z,100756.28
2022-08-21T23:42:00.447Z,100758.81
2022-08-21T23:44:45.255Z,100759.28
2022-08-21T23:47:29.318Z,100746.47
2022-08-21T23:50:14.213Z,100753.31
2022-08-21T23:52:53.336Z,100757.00
2022-08-21T23:55:35.500Z,100760.47
2022-08-21T23:58:18.446Z,100751.81
